sensor_id;sensor_type;location;lat;lon;timestamp;temperature;humidity
6142;DHT22;71289;51.552;6.210;2023-11-19T00:02:11;12.70;99.90
6142;DHT22;71289;51.552;6.210;2023-11-19T00:04:37;12.70;99.90
6142;DHT22;71289;51.552;6.210;2023-11-19T00:07:05;12.70;99.90
6142;DHT22;71289;51.552;6.210;2023-11-19T00:09:32;12.70;99.90
6142;DHT22;71289;51.552;6.210;2023-11-19T00:11:58;12.80;99.90
6142;DHT22;71289;51.552;6.210;2023-11-19T00:14:25;12.80;99.90
6142;DHT22;71289;51.552;6.210;2023-11-19T00:16:51;12.90;99.90
6142;DHT22;71289;51.552;6.210;2023-11-19T00:19:17;12.80;99.90
6142;DHT22;71289;51.552;6.210;2023-11-19T00:21:42;12.80;99.90
6142;DHT22;71289;51.552;6.210;2023-11-19T00:24:08;12.80;99.90
6142;DHT22;71289;51.552;6.210;2023-11-19T00:26:34;12.80;99.90
6142;DHT22;71289;51.552;6.210;2023-11-19T00:29:00;12.90;99.90
6142;DHT22;71289;51.552;6.210;2023-11-19T00:31:25;12.90;99.90
6142;DHT22;71289;51.552;6.210;2023-11-19T00:33:54;12.90;99.90
6142;DHT22;71289;51.552;6.210;2023-11-19T00:36:19;12.80;99.90
6142;DHT22;71289;51.552;6.210;2023-11-19T00:38:45;12.80;99.90
6142;DHT22;71289;51.552;6.210;2023-11-19T00:41:11;12.90;99.90
6142;DHT22;71289;51.552;6.210;2023-11-19T00:43:37;13.30;99.90
6142;DHT22;71289;51.552;6.210;2023-11-19T00:46:03;12.90;99.90
6142;DHT22;71289;51.552;6.210;2023-11-19T00:48:29;12.90;99.90
6142;DHT22;71289;51.552;6.210;2023-11-19T00:50:55;12.80;99.90
6142;DHT22;71289;51.552;6.210;2023-11-19T00:53:20;12.90;99.90
6142;DHT22;71289;51.552;6.210;2023-11-19T00:55:46;12.90;99.90
6142;DHT22;71289;51.552;6.210;2023-11-19T00:58:11;12.90;99.90
6142;DHT22;71289;51.552;6.210;2023-11-19T01:00:37;12.90;99.90
6142;DHT22;71289;51.552;6.210;2023-11-19T01:03:02;12.90;99.90
6142;DHT22;71289;51.552;6.210;2023-11-19T01:05:28;12.90;99.90
6142;DHT22;71289;51.552;6.210;2023-11-19T01:07:54;12.90;99.90
6142;DHT22;71289;51.552;6.210;2023-11-19T01:10:19;13.00;99.90
6142;DHT22;71289;51.552;6.210;2023-11-19T01:12:46;13.00;99.90
6142;DHT22;71289;51.552;6.210;2023-11-19T01:15:12;13.30;99.90
6142;DHT22;71289;51.552;6.210;2023-11-19T01:17:38;13.00;99.90
6142;DHT22;71289;51.552;6.210;2023-11-19T01:20:05;13.00;99.90
6142;DHT22;71289;51.552;6.210;2023-11-19T01:22:32;13.10;99.90
6142;DHT22;71289;51.552;6.210;2023-11-19T01:24:57;13.10;99.90
6142;DHT22;71289;51.552;6.210;2023-11-19T01:27:24;13.10;99.90
6142;DHT22;71289;51.552;6.210;2023-11-19T01:29:50;13.10;99.90
6142;DHT22;71289;51.552;6.210;2023-11-19T01:32:15;13.10;99.90
6142;DHT22;71289;51.552;6.210;2023-11-19T01:34:41;13.00;99.90
6142;DHT22;71289;51.552;6.210;2023-11-19T01:37:07;13.10;99.90
6142;DHT22;71289;51.552;6.210;2023-11-19T01:39:34;13.10;99.90
6142;DHT22;71289;51.552;6.210;2023-11-19T01:42:00;13.20;99.90
6142;DHT22;71289;51.552;6.210;2023-11-19T01:44:25;13.10;99.90
6142;DHT22;71289;51.552;6.210;2023-11-19T01:46:51;13.10;99.90
6142;DHT22;71289;51.552;6.210;2023-11-19T01:49:17;13.10;99.90
6142;DHT22;71289;51.552;6.210;2023-11-19T01:51:45;13.10;99.90
6142;DHT22;71289;51.552;6.210;2023-11-19T01:54:12;13.10;99.90
6142;DHT22;71289;51.552;6.210;2023-11-19T01:56:38;13.10;99.90
6142;DHT22;71289;51.552;6.210;2023-11-19T01:59:07;13.20;99.90
6142;DHT22;71289;51.552;6.210;2023-11-19T02:01:33;13.20;99.90
6142;DHT22;71289;51.552;6.210;2023-11-19T02:04:03;13.20;99.90
6142;DHT22;71289;51.552;6.210;2023-11-19T02:06:30;13.20;99.90
6142;DHT22;71289;51.552;6.210;2023-11-19T02:08:57;13.20;99.90
6142;DHT22;71289;51.552;6.210;2023-11-19T02:11:22;13.20;99.90
6142;DHT22;71289;51.552;6.210;2023-11-19T02:13:48;13.30;99.90
6142;DHT22;71289;51.552;6.210;2023-11-19T02:16:13;13.30;99.90
6142;DHT22;71289;51.552;6.210;2023-11-19T02:18:39;13.30;99.90
6142;DHT22;71289;51.552;6.210;2023-11-19T02:21:05;13.30;99.90
6142;DHT22;71289;51.552;6.210;2023-11-19T02:23:31;13.30;99.90
6142;DHT22;71289;51.552;6.210;2023-11-19T02:28:36;13.30;99.90
6142;DHT22;71289;51.552;6.210;2023-11-19T02:31:02;13.20;99.90
6142;DHT22;71289;51.552;6.210;2023-11-19T02:33:30;13.20;99.90
6142;DHT22;71289;51.552;6.210;2023-11-19T02:35:55;13.20;99.90
6142;DHT22;71289;51.552;6.210;2023-11-19T02:38:21;13.20;99.90
6142;DHT22;71289;51.552;6.210;2023-11-19T02:40:47;13.20;99.90
6142;DHT22;71289;51.552;6.210;2023-11-19T02:43:13;13.10;99.90
6142;DHT22;71289;51.552;6.210;2023-11-19T02:45:38;13.10;99.90
6142;DHT22;71289;51.552;6.210;2023-11-19T02:48:04;13.20;99.90
6142;DHT22;71289;51.552;6.210;2023-11-19T02:50:31;13.20;99.90
6142;DHT22;71289;51.552;6.210;2023-11-19T02:52:57;13.10;99.90
6142;DHT22;71289;51.552;6.210;2023-11-19T02:55:23;13.10;99.90
6142;DHT22;71289;51.552;6.210;2023-11-19T02:57:49;13.10;99.90
6142;DHT22;71289;51.552;6.210;2023-11-19T03:00:17;13.10;99.90
6142;DHT22;71289;51.552;6.210;2023-11-19T03:02:46;13.20;99.90
6142;DHT22;71289;51.552;6.210;2023-11-19T03:05:13;13.10;99.90
6142;DHT22;71289;51.552;6.210;2023-11-19T03:07:41;13.10;99.90
6142;DHT22;71289;51.552;6.210;2023-11-19T03:10:08;13.10;99.90
6142;DHT22;71289;51.552;6.210;2023-11-19T03:12:34;13.10;99.90
6142;DHT22;71289;51.552;6.210;2023-11-19T03:14:59;13.10;99.90
6142;DHT22;71289;51.552;6.210;2023-11-19T03:17:25;13.10;99.90
6142;DHT22;71289;51.552;6.210;2023-11-19T03:19:50;13.10;99.90
6142;DHT22;71289;51.552;6.210;2023-11-19T03:22:16;13.00;99.90
6142;DHT22;71289;51.552;6.210;2023-11-19T03:24:41;13.00;99.90
6142;DHT22;71289;51.552;6.210;2023-11-19T03:27:07;13.00;99.90
6142;DHT22;71289;51.552;6.210;2023-11-19T03:29:32;12.90;99.90
6142;DHT22;71289;51.552;6.210;2023-11-19T03:31:58;12.90;99.90
6142;DHT22;71289;51.552;6.210;2023-11-19T03:34:23;12.90;99.90
6142;DHT22;71289;51.552;6.210;2023-11-19T03:36:49;12.90;99.90
6142;DHT22;71289;51.552;6.210;2023-11-19T03:39:14;12.80;99.90
6142;DHT22;71289;51.552;6.210;2023-11-19T03:41:40;12.80;99.90
6142;DHT22;71289;51.552;6.210;2023-11-19T03:44:05;12.80;99.90
6142;DHT22;71289;51.552;6.210;2023-11-19T03:46:31;12.80;99.90
6142;DHT22;71289;51.552;6.210;2023-11-19T03:48:57;12.70;99.90
6142;DHT22;71289;51.552;6.210;2023-11-19T03:51:22;12.70;99.90
6142;DHT22;71289;51.552;6.210;2023-11-19T03:53:48;12.60;99.90
6142;DHT22;71289;51.552;6.210;2023-11-19T03:56:13;12.60;99.90
6142;DHT22;71289;51.552;6.210;2023-11-19T03:58:39;12.60;99.90
6142;DHT22;71289;51.552;6.210;2023-11-19T04:01:05;12.50;99.90
6142;DHT22;71289;51.552;6.210;2023-11-19T04:03:31;12.50;99.90
6142;DHT22;71289;51.552;6.210;2023-11-19T04:05:57;12.70;99.90
6142;DHT22;71289;51.552;6.210;2023-11-19T04:08:22;12.40;99.90
6142;DHT22;71289;51.552;6.210;2023-11-19T04:10:48;12.30;99.90
6142;DHT22;71289;51.552;6.210;2023-11-19T04:13:14;12.30;99.90
6142;DHT22;71289;51.552;6.210;2023-11-19T04:15:39;12.30;99.90
6142;DHT22;71289;51.552;6.210;2023-11-19T04:18:05;12.20;99.90
6142;DHT22;71289;51.552;6.210;2023-11-19T04:20:30;12.20;99.90
6142;DHT22;71289;51.552;6.210;2023-11-19T04:22:57;12.20;99.90
6142;DHT22;71289;51.552;6.210;2023-11-19T04:25:22;12.20;99.90
6142;DHT22;71289;51.552;6.210;2023-11-19T04:27:49;12.20;99.90
6142;DHT22;71289;51.552;6.210;2023-11-19T04:30:15;12.20;99.90
6142;DHT22;71289;51.552;6.210;2023-11-19T04:32:40;12.30;99.90
6142;DHT22;71289;51.552;6.210;2023-11-19T04:35:06;12.20;99.90
6142;DHT22;71289;51.552;6.210;2023-11-19T04:37:32;12.20;99.90
6142;DHT22;71289;51.552;6.210;2023-11-19T04:39:58;12.20;99.90
6142;DHT22;71289;51.552;6.210;2023-11-19T04:42:25;12.20;99.90
6142;DHT22;71289;51.552;6.210;2023-11-19T04:44:50;12.20;99.90
6142;DHT22;71289;51.552;6.210;2023-11-19T04:47:16;12.20;99.90
6142;DHT22;71289;51.552;6.210;2023-11-19T04:49:42;12.20;99.90
6142;DHT22;71289;51.552;6.210;2023-11-19T04:52:10;12.20;99.90
6142;DHT22;71289;51.552;6.210;2023-11-19T04:54:41;12.20;99.90
6142;DHT22;71289;51.552;6.210;2023-11-19T04:57:07;12.20;99.90
6142;DHT22;71289;51.552;6.210;2023-11-19T04:59:35;12.20;99.90
6142;DHT22;71289;51.552;6.210;2023-11-19T05:02:00;12.20;99.90
6142;DHT22;71289;51.552;6.210;2023-11-19T05:04:26;12.50;99.90
6142;DHT22;71289;51.552;6.210;2023-11-19T05:06:51;12.30;99.90
6142;DHT22;71289;51.552;6.210;2023-11-19T05:09:17;12.30;99.90
6142;DHT22;71289;51.552;6.210;2023-11-19T05:11:43;12.30;99.90
6142;DHT22;71289;51.552;6.210;2023-11-19T05:14:09;12.20;99.90
6142;DHT22;71289;51.552;6.210;2023-11-19T05:16:34;12.20;99.90
6142;DHT22;71289;51.552;6.210;2023-11-19T05:19:00;12.20;99.90
6142;DHT22;71289;51.552;6.210;2023-11-19T05:21:26;12.20;99.90
6142;DHT22;71289;51.552;6.210;2023-11-19T05:23:51;12.20;99.90
6142;DHT22;71289;51.552;6.210;2023-11-19T05:26:18;12.10;99.90
6142;DHT22;71289;51.552;6.210;2023-11-19T05:28:45;12.20;99.90
6142;DHT22;71289;51.552;6.210;2023-11-19T05:31:10;12.20;99.90
6142;DHT22;71289;51.552;6.210;2023-11-19T05:33:36;12.20;99.90
6142;DHT22;71289;51.552;6.210;2023-11-19T05:36:02;12.10;99.90
6142;DHT22;71289;51.552;6.210;2023-11-19T05:38:29;12.10;99.90
6142;DHT22;71289;51.552;6.210;2023-11-19T05:40:55;12.10;99.90
6142;DHT22;71289;51.552;6.210;2023-11-19T05:43:20;12.00;99.90
6142;DHT22;71289;51.552;6.210;2023-11-19T05:45:46;12.00;99.90
6142;DHT22;71289;51.552;6.210;2023-11-19T05:48:12;12.00;99.90
6142;DHT22;71289;51.552;6.210;2023-11-19T05:50:38;11.90;99.90
6142;DHT22;71289;51.552;6.210;2023-11-19T05:53:04;12.00;99.90
6142;DHT22;71289;51.552;6.210;2023-11-19T05:55:33;12.20;99.90
6142;DHT22;71289;51.552;6.210;2023-11-19T05:57:59;11.90;99.90
6142;DHT22;71289;51.552;6.210;2023-11-19T06:00:25;11.90;99.90
6142;DHT22;71289;51.552;6.210;2023-11-19T06:02:52;11.90;99.90
6142;DHT22;71289;51.552;6.210;2023-11-19T06:05:17;11.90;99.90
6142;DHT22;71289;51.552;6.210;2023-11-19T06:07:43;11.80;99.90
6142;DHT22;71289;51.552;6.210;2023-11-19T06:10:12;11.90;99.90
6142;DHT22;71289;51.552;6.210;2023-11-19T06:12:39;11.90;99.90
6142;DHT22;71289;51.552;6.210;2023-11-19T06:15:06;11.90;99.90
6142;DHT22;71289;51.552;6.210;2023-11-19T06:17:33;11.90;99.90
6142;DHT22;71289;51.552;6.210;2023-11-19T06:19:59;11.90;99.90
6142;DHT22;71289;51.552;6.210;2023-11-19T06:22:25;11.80;99.90
6142;DHT22;71289;51.552;6.210;2023-11-19T06:24:50;11.80;99.90
6142;DHT22;71289;51.552;6.210;2023-11-19T06:27:16;11.80;99.90
6142;DHT22;71289;51.552;6.210;2023-11-19T06:29:41;11.80;99.90
6142;DHT22;71289;51.552;6.210;2023-11-19T06:32:07;11.80;99.90
6142;DHT22;71289;51.552;6.210;2023-11-19T06:34:34;11.80;99.90
6142;DHT22;71289;51.552;6.210;2023-11-19T06:36:59;11.80;99.90
6142;DHT22;71289;51.552;6.210;2023-11-19T06:39:25;11.70;99.90
6142;DHT22;71289;51.552;6.210;2023-11-19T06:41:51;11.80;99.90
6142;DHT22;71289;51.552;6.210;2023-11-19T06:44:17;11.70;99.90
6142;DHT22;71289;51.552;6.210;2023-11-19T06:46:43;11.80;99.90
6142;DHT22;71289;51.552;6.210;2023-11-19T06:49:08;11.60;99.90
6142;DHT22;71289;51.552;6.210;2023-11-19T06:51:34;11.70;99.90
6142;DHT22;71289;51.552;6.210;2023-11-19T06:53:59;11.60;99.90
6142;DHT22;71289;51.552;6.210;2023-11-19T06:56:25;11.60;99.90
6142;DHT22;71289;51.552;6.210;2023-11-19T06:58:51;11.60;99.90
6142;DHT22;71289;51.552;6.210;2023-11-19T07:01:17;11.60;99.90
6142;DHT22;71289;51.552;6.210;2023-11-19T07:03:44;11.80;99.90
6142;DHT22;71289;51.552;6.210;2023-11-19T07:06:10;11.60;99.90
6142;DHT22;71289;51.552;6.210;2023-11-19T07:08:36;11.60;99.90
6142;DHT22;71289;51.552;6.210;2023-11-19T07:11:02;11.50;99.90
6142;DHT22;71289;51.552;6.210;2023-11-19T07:13:27;11.50;99.90
6142;DHT22;71289;51.552;6.210;2023-11-19T07:15:55;11.50;99.90
6142;DHT22;71289;51.552;6.210;2023-11-19T07:18:21;11.50;99.90
6142;DHT22;71289;51.552;6.210;2023-11-19T07:20:49;11.50;99.90
6142;DHT22;71289;51.552;6.210;2023-11-19T07:23:15;11.50;99.90
6142;DHT22;71289;51.552;6.210;2023-11-19T07:25:42;11.50;99.90
6142;DHT22;71289;51.552;6.210;2023-11-19T07:28:10;11.50;99.90
6142;DHT22;71289;51.552;6.210;2023-11-19T07:30:35;11.50;99.90
6142;DHT22;71289;51.552;6.210;2023-11-19T07:33:01;11.50;99.90
6142;DHT22;71289;51.552;6.210;2023-11-19T07:35:29;11.60;99.90
6142;DHT22;71289;51.552;6.210;2023-11-19T07:37:56;11.50;99.90
6142;DHT22;71289;51.552;6.210;2023-11-19T07:40:23;11.50;99.90
6142;DHT22;71289;51.552;6.210;2023-11-19T07:42:48;11.80;99.90
6142;DHT22;71289;51.552;6.210;2023-11-19T07:45:14;11.60;99.90
6142;DHT22;71289;51.552;6.210;2023-11-19T07:47:39;11.60;99.90
6142;DHT22;71289;51.552;6.210;2023-11-19T07:50:05;11.50;99.90
6142;DHT22;71289;51.552;6.210;2023-11-19T07:52:31;11.50;99.90
6142;DHT22;71289;51.552;6.210;2023-11-19T07:54:56;11.50;99.90
6142;DHT22;71289;51.552;6.210;2023-11-19T07:57:22;11.50;99.90
6142;DHT22;71289;51.552;6.210;2023-11-19T07:59:49;11.50;99.90
6142;DHT22;71289;51.552;6.210;2023-11-19T08:02:14;11.50;99.90
6142;DHT22;71289;51.552;6.210;2023-11-19T08:04:40;11.60;99.90
6142;DHT22;71289;51.552;6.210;2023-11-19T08:07:10;11.50;99.90
6142;DHT22;71289;51.552;6.210;2023-11-19T08:09:36;11.60;99.90
6142;DHT22;71289;51.552;6.210;2023-11-19T08:12:03;11.90;99.90
6142;DHT22;71289;51.552;6.210;2023-11-19T08:14:29;11.60;99.90
6142;DHT22;71289;51.552;6.210;2023-11-19T08:16:54;11.60;99.90
6142;DHT22;71289;51.552;6.210;2023-11-19T08:19:20;11.70;99.90
6142;DHT22;71289;51.552;6.210;2023-11-19T08:21:45;11.70;99.90
6142;DHT22;71289;51.552;6.210;2023-11-19T08:24:11;11.70;99.90
6142;DHT22;71289;51.552;6.210;2023-11-19T08:26:36;11.70;99.90
6142;DHT22;71289;51.552;6.210;2023-11-19T08:29:02;11.80;99.90
6142;DHT22;71289;51.552;6.210;2023-11-19T08:31:28;11.80;99.90
6142;DHT22;71289;51.552;6.210;2023-11-19T08:33:54;11.90;99.90
6142;DHT22;71289;51.552;6.210;2023-11-19T08:36:19;11.80;99.90
6142;DHT22;71289;51.552;6.210;2023-11-19T08:38:45;11.90;99.90
6142;DHT22;71289;51.552;6.210;2023-11-19T08:41:10;11.90;99.90
6142;DHT22;71289;51.552;6.210;2023-11-19T08:43:36;12.30;99.90
6142;DHT22;71289;51.552;6.210;2023-11-19T08:46:01;12.00;99.90
6142;DHT22;71289;51.552;6.210;2023-11-19T08:48:27;12.00;99.90
6142;DHT22;71289;51.552;6.210;2023-11-19T08:50:52;12.10;99.90
6142;DHT22;71289;51.552;6.210;2023-11-19T08:53:18;12.10;99.90
6142;DHT22;71289;51.552;6.210;2023-11-19T08:55:44;12.20;99.90
6142;DHT22;71289;51.552;6.210;2023-11-19T08:58:09;12.20;99.90
6142;DHT22;71289;51.552;6.210;2023-11-19T09:00:35;12.20;99.90
6142;DHT22;71289;51.552;6.210;2023-11-19T09:03:00;12.30;99.90
6142;DHT22;71289;51.552;6.210;2023-11-19T09:05:26;12.30;99.90
6142;DHT22;71289;51.552;6.210;2023-11-19T09:07:51;12.30;99.90
6142;DHT22;71289;51.552;6.210;2023-11-19T09:10:17;12.30;99.90
6142;DHT22;71289;51.552;6.210;2023-11-19T09:12:43;12.30;99.90
6142;DHT22;71289;51.552;6.210;2023-11-19T09:15:09;12.40;99.90
6142;DHT22;71289;51.552;6.210;2023-11-19T09:17:36;12.50;99.90
6142;DHT22;71289;51.552;6.210;2023-11-19T09:20:01;12.50;99.90
6142;DHT22;71289;51.552;6.210;2023-11-19T09:22:27;12.50;99.90
6142;DHT22;71289;51.552;6.210;2023-11-19T09:24:52;12.60;99.90
6142;DHT22;71289;51.552;6.210;2023-11-19T09:27:18;12.60;99.90
6142;DHT22;71289;51.552;6.210;2023-11-19T09:29:43;12.60;99.90
6142;DHT22;71289;51.552;6.210;2023-11-19T09:32:11;12.70;99.90
6142;DHT22;71289;51.552;6.210;2023-11-19T09:34:36;12.70;99.90
6142;DHT22;71289;51.552;6.210;2023-11-19T09:37:02;12.90;99.90
6142;DHT22;71289;51.552;6.210;2023-11-19T09:39:28;12.70;99.90
6142;DHT22;71289;51.552;6.210;2023-11-19T09:41:53;12.80;99.90
6142;DHT22;71289;51.552;6.210;2023-11-19T09:44:19;12.80;99.90
6142;DHT22;71289;51.552;6.210;2023-11-19T09:46:45;12.80;99.90
6142;DHT22;71289;51.552;6.210;2023-11-19T09:49:11;12.90;99.90
6142;DHT22;71289;51.552;6.210;2023-11-19T09:51:38;12.90;99.90
6142;DHT22;71289;51.552;6.210;2023-11-19T09:54:04;12.90;99.90
6142;DHT22;71289;51.552;6.210;2023-11-19T09:56:29;13.00;99.90
6142;DHT22;71289;51.552;6.210;2023-11-19T09:58:56;13.00;99.90
6142;DHT22;71289;51.552;6.210;2023-11-19T10:01:21;13.10;99.90
6142;DHT22;71289;51.552;6.210;2023-11-19T10:03:48;13.10;99.90
6142;DHT22;71289;51.552;6.210;2023-11-19T10:06:15;13.10;99.90
6142;DHT22;71289;51.552;6.210;2023-11-19T10:08:42;13.10;99.90
6142;DHT22;71289;51.552;6.210;2023-11-19T10:11:08;13.20;99.90
6142;DHT22;71289;51.552;6.210;2023-11-19T10:13:36;13.30;99.90
6142;DHT22;71289;51.552;6.210;2023-11-19T10:16:14;13.30;99.90
6142;DHT22;71289;51.552;6.210;2023-11-19T10:18:48;13.30;99.90
6142;DHT22;71289;51.552;6.210;2023-11-19T10:21:17;13.30;99.90
6142;DHT22;71289;51.552;6.210;2023-11-19T10:23:49;13.40;99.90
6142;DHT22;71289;51.552;6.210;2023-11-19T10:26:16;13.40;99.90
6142;DHT22;71289;51.552;6.210;2023-11-19T10:28:42;13.40;99.90
6142;DHT22;71289;51.552;6.210;2023-11-19T10:31:15;13.40;99.90
6142;DHT22;71289;51.552;6.210;2023-11-19T10:33:41;13.40;99.90
6142;DHT22;71289;51.552;6.210;2023-11-19T10:36:07;13.40;99.90
6142;DHT22;71289;51.552;6.210;2023-11-19T10:38:32;13.50;99.90
6142;DHT22;71289;51.552;6.210;2023-11-19T10:40:58;13.50;99.90
6142;DHT22;71289;51.552;6.210;2023-11-19T10:43:24;13.30;99.90
6142;DHT22;71289;51.552;6.210;2023-11-19T10:45:51;13.60;99.90
6142;DHT22;71289;51.552;6.210;2023-11-19T10:48:17;13.60;99.90
6142;DHT22;71289;51.552;6.210;2023-11-19T10:50:44;13.70;99.90
6142;DHT22;71289;51.552;6.210;2023-11-19T10:53:11;13.70;99.90
6142;DHT22;71289;51.552;6.210;2023-11-19T10:55:38;13.60;99.90
6142;DHT22;71289;51.552;6.210;2023-11-19T10:58:08;13.60;99.90
6142;DHT22;71289;51.552;6.210;2023-11-19T11:00:39;13.80;99.90
6142;DHT22;71289;51.552;6.210;2023-11-19T11:03:19;14.00;99.90
6142;DHT22;71289;51.552;6.210;2023-11-19T11:05:49;13.90;99.90
6142;DHT22;71289;51.552;6.210;2023-11-19T11:08:17;13.80;99.90
6142;DHT22;71289;51.552;6.210;2023-11-19T11:10:53;13.80;99.90
6142;DHT22;71289;51.552;6.210;2023-11-19T11:13:20;13.80;99.90
6142;DHT22;71289;51.552;6.210;2023-11-19T11:15:48;13.90;99.90
6142;DHT22;71289;51.552;6.210;2023-11-19T11:18:14;14.00;99.90
6142;DHT22;71289;51.552;6.210;2023-11-19T11:20:40;14.00;99.90
6142;DHT22;71289;51.552;6.210;2023-11-19T11:28:58;14.20;99.90
6142;DHT22;71289;51.552;6.210;2023-11-19T11:31:44;14.40;99.90
6142;DHT22;71289;51.552;6.210;2023-11-19T11:39:34;14.50;99.90
6142;DHT22;71289;51.552;6.210;2023-11-19T11:45:01;14.40;99.90
6142;DHT22;71289;51.552;6.210;2023-11-19T11:50:11;14.30;99.90
6142;DHT22;71289;51.552;6.210;2023-11-19T11:55:24;14.20;99.90
6142;DHT22;71289;51.552;6.210;2023-11-19T11:57:50;14.10;99.90
6142;DHT22;71289;51.552;6.210;2023-11-19T12:00:41;14.20;99.90
6142;DHT22;71289;51.552;6.210;2023-11-19T12:03:08;14.40;99.90
6142;DHT22;71289;51.552;6.210;2023-11-19T12:05:46;14.10;99.90
6142;DHT22;71289;51.552;6.210;2023-11-19T12:08:12;14.00;99.90
6142;DHT22;71289;51.552;6.210;2023-11-19T12:10:47;13.80;99.90
6142;DHT22;71289;51.552;6.210;2023-11-19T12:13:13;13.70;99.90
6142;DHT22;71289;51.552;6.210;2023-11-19T12:18:24;13.40;99.90
6142;DHT22;71289;51.552;6.210;2023-11-19T12:20:51;13.40;99.90
6142;DHT22;71289;51.552;6.210;2023-11-19T12:23:17;13.40;99.90
6142;DHT22;71289;51.552;6.210;2023-11-19T12:25:42;13.30;99.90
6142;DHT22;71289;51.552;6.210;2023-11-19T12:28:14;13.20;99.90
6142;DHT22;71289;51.552;6.210;2023-11-19T12:30:40;13.20;99.90
6142;DHT22;71289;51.552;6.210;2023-11-19T12:33:09;13.30;99.90
6142;DHT22;71289;51.552;6.210;2023-11-19T12:35:42;13.50;99.90
6142;DHT22;71289;51.552;6.210;2023-11-19T12:38:18;13.70;99.90
6142;DHT22;71289;51.552;6.210;2023-11-19T12:40:43;13.80;99.90
6142;DHT22;71289;51.552;6.210;2023-11-19T12:43:09;13.90;99.90
6142;DHT22;71289;51.552;6.210;2023-11-19T12:45:37;14.00;99.90
6142;DHT22;71289;51.552;6.210;2023-11-19T12:48:08;14.10;99.90
6142;DHT22;71289;51.552;6.210;2023-11-19T12:50:51;14.20;99.90
6142;DHT22;71289;51.552;6.210;2023-11-19T12:53:17;14.20;99.90
6142;DHT22;71289;51.552;6.210;2023-11-19T12:55:43;14.20;99.90
6142;DHT22;71289;51.552;6.210;2023-11-19T12:58:09;14.30;99.90
6142;DHT22;71289;51.552;6.210;2023-11-19T13:00:34;14.40;99.90
6142;DHT22;71289;51.552;6.210;2023-11-19T13:03:00;14.50;99.90
6142;DHT22;71289;51.552;6.210;2023-11-19T13:05:33;14.90;99.90
6142;DHT22;71289;51.552;6.210;2023-11-19T13:08:06;14.80;99.90
6142;DHT22;71289;51.552;6.210;2023-11-19T13:10:54;14.90;99.90
6142;DHT22;71289;51.552;6.210;2023-11-19T13:13:19;15.00;99.90
6142;DHT22;71289;51.552;6.210;2023-11-19T13:15:45;15.10;99.90
6142;DHT22;71289;51.552;6.210;2023-11-19T13:18:11;15.10;99.90
6142;DHT22;71289;51.552;6.210;2023-11-19T13:20:37;15.30;99.90
6142;DHT22;71289;51.552;6.210;2023-11-19T13:23:04;15.20;99.90
6142;DHT22;71289;51.552;6.210;2023-11-19T13:25:31;15.00;99.90
6142;DHT22;71289;51.552;6.210;2023-11-19T13:27:58;14.80;99.90
6142;DHT22;71289;51.552;6.210;2023-11-19T13:30:24;14.70;99.90
6142;DHT22;71289;51.552;6.210;2023-11-19T13:32:50;14.60;99.90
6142;DHT22;71289;51.552;6.210;2023-11-19T13:35:17;14.50;99.90
6142;DHT22;71289;51.552;6.210;2023-11-19T13:37:43;14.40;99.90
6142;DHT22;71289;51.552;6.210;2023-11-19T13:40:10;14.30;99.90
6142;DHT22;71289;51.552;6.210;2023-11-19T13:42:41;14.20;99.90
6142;DHT22;71289;51.552;6.210;2023-11-19T13:45:08;14.20;99.90
6142;DHT22;71289;51.552;6.210;2023-11-19T13:47:37;14.00;99.90
6142;DHT22;71289;51.552;6.210;2023-11-19T13:50:09;13.80;99.90
6142;DHT22;71289;51.552;6.210;2023-11-19T13:52:39;13.70;99.90
6142;DHT22;71289;51.552;6.210;2023-11-19T13:55:09;13.50;99.90
6142;DHT22;71289;51.552;6.210;2023-11-19T13:57:36;13.20;99.90
6142;DHT22;71289;51.552;6.210;2023-11-19T14:00:07;13.00;99.90
6142;DHT22;71289;51.552;6.210;2023-11-19T14:02:36;12.90;99.90
6142;DHT22;71289;51.552;6.210;2023-11-19T14:05:02;12.80;99.90
6142;DHT22;71289;51.552;6.210;2023-11-19T14:07:28;12.70;99.90
6142;DHT22;71289;51.552;6.210;2023-11-19T14:09:53;12.70;99.90
6142;DHT22;71289;51.552;6.210;2023-11-19T14:12:19;12.60;99.90
6142;DHT22;71289;51.552;6.210;2023-11-19T14:14:45;12.70;99.90
6142;DHT22;71289;51.552;6.210;2023-11-19T14:17:11;12.70;99.90
6142;DHT22;71289;51.552;6.210;2023-11-19T14:19:37;12.70;99.90
6142;DHT22;71289;51.552;6.210;2023-11-19T14:22:04;12.80;99.90
6142;DHT22;71289;51.552;6.210;2023-11-19T14:24:30;12.90;99.90
6142;DHT22;71289;51.552;6.210;2023-11-19T14:26:55;12.70;99.90
6142;DHT22;71289;51.552;6.210;2023-11-19T14:29:24;12.70;99.90
6142;DHT22;71289;51.552;6.210;2023-11-19T14:31:51;12.70;99.90
6142;DHT22;71289;51.552;6.210;2023-11-19T14:34:17;12.70;99.90
6142;DHT22;71289;51.552;6.210;2023-11-19T14:36:42;12.70;99.90
6142;DHT22;71289;51.552;6.210;2023-11-19T14:39:08;12.80;99.90
6142;DHT22;71289;51.552;6.210;2023-11-19T14:41:33;12.70;99.90
6142;DHT22;71289;51.552;6.210;2023-11-19T14:43:59;12.70;99.90
6142;DHT22;71289;51.552;6.210;2023-11-19T14:46:24;12.70;99.90
6142;DHT22;71289;51.552;6.210;2023-11-19T14:48:50;12.70;99.90
6142;DHT22;71289;51.552;6.210;2023-11-19T14:51:16;12.70;99.90
6142;DHT22;71289;51.552;6.210;2023-11-19T14:53:41;12.70;99.90
6142;DHT22;71289;51.552;6.210;2023-11-19T14:56:10;12.60;99.90
6142;DHT22;71289;51.552;6.210;2023-11-19T14:58:38;12.60;99.90
6142;DHT22;71289;51.552;6.210;2023-11-19T15:01:03;12.50;99.90
6142;DHT22;71289;51.552;6.210;2023-11-19T15:03:30;12.50;99.90
6142;DHT22;71289;51.552;6.210;2023-11-19T15:05:56;12.50;99.90
6142;DHT22;71289;51.552;6.210;2023-11-19T15:08:21;12.40;99.90
6142;DHT22;71289;51.552;6.210;2023-11-19T15:10:47;12.40;99.90
6142;DHT22;71289;51.552;6.210;2023-11-19T15:13:13;12.30;99.90
6142;DHT22;71289;51.552;6.210;2023-11-19T15:15:38;12.30;99.90
6142;DHT22;71289;51.552;6.210;2023-11-19T15:18:04;12.20;99.90
6142;DHT22;71289;51.552;6.210;2023-11-19T15:20:30;12.20;99.90
6142;DHT22;71289;51.552;6.210;2023-11-19T15:22:57;12.20;99.90
6142;DHT22;71289;51.552;6.210;2023-11-19T15:25:22;12.20;99.90
6142;DHT22;71289;51.552;6.210;2023-11-19T15:27:48;12.20;99.90
6142;DHT22;71289;51.552;6.210;2023-11-19T15:30:14;12.40;99.90
6142;DHT22;71289;51.552;6.210;2023-11-19T15:32:43;12.20;99.90
6142;DHT22;71289;51.552;6.210;2023-11-19T15:35:10;12.10;99.90
6142;DHT22;71289;51.552;6.210;2023-11-19T15:37:36;12.10;99.90
6142;DHT22;71289;51.552;6.210;2023-11-19T15:40:03;12.10;99.90
6142;DHT22;71289;51.552;6.210;2023-11-19T15:42:35;12.10;99.90
6142;DHT22;71289;51.552;6.210;2023-11-19T15:45:01;12.00;99.90
6142;DHT22;71289;51.552;6.210;2023-11-19T15:47:30;12.00;99.90
6142;DHT22;71289;51.552;6.210;2023-11-19T15:49:56;12.00;99.90
6142;DHT22;71289;51.552;6.210;2023-11-19T15:52:22;11.90;99.90
6142;DHT22;71289;51.552;6.210;2023-11-19T15:54:47;11.80;99.90
6142;DHT22;71289;51.552;6.210;2023-11-19T15:57:13;11.80;99.90
6142;DHT22;71289;51.552;6.210;2023-11-19T15:59:39;11.80;99.90
6142;DHT22;71289;51.552;6.210;2023-11-19T16:02:05;11.90;99.90
6142;DHT22;71289;51.552;6.210;2023-11-19T16:04:30;11.80;99.90
6142;DHT22;71289;51.552;6.210;2023-11-19T16:06:56;11.70;99.90